Industrial Hillside, New Jersey
Current Conditions -  °F | °C
As of 11:51 AM on Thursday 27 Nov 2014 (Local Time) from KEWR Reporting Station
Light Rain Light Rain  
Wind Chill: 33°   Ceiling: 700
Heat Index: 37°   Visibility: 10mi
Dew Point: 34°   Wind: 5mph
Humidity: 89%   Direction: NA
Pressure: 30"   Gusts: NA
Location:  40.6961°N, 74.2294°W
Report Text: KEWR 271651Z VRB04KT 10SM -RA BKN007 BKN014 OVC040 03/01 A3000 RMK AO2 RAE1554B10SNE50 SLP157 P0001 T00280011 $
Loading
Personal Weather Stations






























Interactive Weather Map New forecast layout! Learn more

10-Day Weather Forecast

Advertisements
Track Severe Weather on mobile